Time;durP1;ratioP1;P1;durP2;ratioP2;P2;SDS_P1;SDS_P2;PMS_P1;PMS_P2;Temp;Humidity;BMP_temperature;BMP_pressure;BME280_temperature;BME280_humidity;BME280_pressure;Samples;Min_cycle;Max_cycle;Signal;HPM_P1;HPM_P2
2022/11/15 00:01:46;;;;;;;9.90;7.57;;;;;;;;;;5065359;28;20522;-70
2022/11/15 00:04:12;;;;;;;11.90;7.93;;;;;;;;;;5065398;28;20204;-71
2022/11/15 00:06:38;;;;;;;9.68;8.15;;;;;;;;;;5065221;28;20211;-70
2022/11/15 00:09:06;;;;;;;9.00;7.85;;;;;;;;;;5064760;28;20520;-70
2022/11/15 00:11:32;;;;;;;13.02;9.32;;;;;;;;;;5065222;28;20203;-70
2022/11/15 00:14:01;;;;;;;12.02;9.48;;;;;;;;;;5065252;28;20197;-70
2022/11/15 00:16:28;;;;;;;10.95;9.27;;;;;;;;;;5064979;28;20262;-70
2022/11/15 00:18:54;;;;;;;12.05;9.20;;;;;;;;;;5064738;28;20209;-70
2022/11/15 00:21:20;;;;;;;12.55;9.40;;;;;;;;;;5064983;28;20197;-70
2022/11/15 00:23:47;;;;;;;12.57;9.18;;;;;;;;;;5064877;28;20204;-70
2022/11/15 00:26:15;;;;;;;11.77;8.80;;;;;;;;;;5064921;28;20197;-70
2022/11/15 00:28:42;;;;;;;13.18;8.82;;;;;;;;;;5064730;28;20567;-70
2022/11/15 00:31:10;;;;;;;11.30;8.30;;;;;;;;;;5064891;28;20240;-70
2022/11/15 00:33:36;;;;;;;8.98;8.10;;;;;;;;;;5064820;28;20527;-70
2022/11/15 00:36:03;;;;;;;10.50;8.23;;;;;;;;;;5064502;28;20197;-70
2022/11/15 00:38:33;;;;;;;11.65;8.35;;;;;;;;;;5064636;28;20447;-70
2022/11/15 00:41:00;;;;;;;12.10;8.68;;;;;;;;;;5064797;28;20193;-70
2022/11/15 00:43:27;;;;;;;10.23;8.02;;;;;;;;;;5064671;28;20386;-70
2022/11/15 00:45:54;;;;;;;10.48;8.43;;;;;;;;;;5064579;28;20212;-70
2022/11/15 00:48:20;;;;;;;9.80;7.93;;;;;;;;;;5064247;28;20197;-70
2022/11/15 00:50:46;;;;;;;8.82;7.90;;;;;;;;;;5064389;28;20224;-70
2022/11/15 00:53:12;;;;;;;9.80;7.78;;;;;;;;;;5064509;28;20204;-70
2022/11/15 00:55:39;;;;;;;10.15;8.30;;;;;;;;;;5064524;28;20201;-70
2022/11/15 00:58:05;;;;;;;9.73;8.00;;;;;;;;;;5063984;28;20526;-70
2022/11/15 01:00:33;;;;;;;11.23;8.32;;;;;;;;;;5064201;28;20367;-70
2022/11/15 01:03:00;;;;;;;10.88;8.00;;;;;;;;;;5064235;28;20197;-70
2022/11/15 01:05:26;;;;;;;10.25;7.82;;;;;;;;;;5064076;28;20275;-70
2022/11/15 01:07:53;;;;;;;14.10;8.68;;;;;;;;;;5063827;28;20211;-71
2022/11/15 01:10:20;;;;;;;10.75;8.43;;;;;;;;;;5064093;28;20217;-70
2022/11/15 01:12:46;;;;;;;12.07;8.02;;;;;;;;;;5063435;28;20266;-70
2022/11/15 01:15:13;;;;;;;10.15;7.93;;;;;;;;;;5064292;28;20197;-70
2022/11/15 01:17:40;;;;;;;11.05;8.27;;;;;;;;;;5063622;28;20205;-70
2022/11/15 01:20:08;;;;;;;11.48;8.35;;;;;;;;;;5063800;28;20207;-70
2022/11/15 01:22:34;;;;;;;12.30;7.82;;;;;;;;;;5063993;28;20197;-70
2022/11/15 01:25:00;;;;;;;11.13;7.93;;;;;;;;;;5063856;28;20197;-70
2022/11/15 01:27:26;;;;;;;10.82;7.75;;;;;;;;;;5063725;28;20217;-70
2022/11/15 01:29:53;;;;;;;12.27;7.38;;;;;;;;;;5063468;28;20223;-70
2022/11/15 01:32:19;;;;;;;9.50;7.55;;;;;;;;;;5063526;28;20200;-71
2022/11/15 01:34:47;;;;;;;10.43;7.53;;;;;;;;;;5063882;28;20201;-70
2022/11/15 01:37:13;;;;;;;8.35;7.22;;;;;;;;;;5063576;28;20215;-70
2022/11/15 01:39:39;;;;;;;11.70;7.47;;;;;;;;;;5063405;28;20500;-70
2022/11/15 01:42:05;;;;;;;7.57;6.70;;;;;;;;;;5063891;28;20222;-70
2022/11/15 01:44:37;;;;;;;9.23;7.13;;;;;;;;;;5063349;28;20197;-70
2022/11/15 01:47:05;;;;;;;11.88;6.50;;;;;;;;;;5063540;28;20193;-70
2022/11/15 01:49:33;;;;;;;8.88;7.63;;;;;;;;;;5063246;28;20393;-70
2022/11/15 01:52:02;;;;;;;10.77;8.20;;;;;;;;;;5063612;28;20197;-71
2022/11/15 01:54:28;;;;;;;9.75;8.27;;;;;;;;;;5063252;28;20201;-70
2022/11/15 01:56:56;;;;;;;10.32;9.10;;;;;;;;;;5063245;28;20530;-70
2022/11/15 01:59:23;;;;;;;8.73;7.80;;;;;;;;;;5062771;28;20215;-71
2022/11/15 02:01:50;;;;;;;8.73;7.60;;;;;;;;;;5063417;28;20197;-70
2022/11/15 02:04:17;;;;;;;10.43;7.28;;;;;;;;;;5063178;28;20205;-70
2022/11/15 02:06:44;;;;;;;8.73;7.70;;;;;;;;;;5063110;28;20197;-70
2022/11/15 02:09:12;;;;;;;9.63;7.70;;;;;;;;;;5062768;28;20197;-70
2022/11/15 02:11:38;;;;;;;7.05;6.38;;;;;;;;;;5062235;28;20219;-70
2022/11/15 02:14:05;;;;;;;9.80;6.40;;;;;;;;;;5062829;28;20203;-70
2022/11/15 02:16:36;;;;;;;9.00;5.93;;;;;;;;;;5062900;28;20201;-70
2022/11/15 02:19:09;;;;;;;7.78;5.28;;;;;;;;;;5062507;28;20422;-70
2022/11/15 02:21:40;;;;;;;5.95;4.82;;;;;;;;;;5062624;28;20544;-70
2022/11/15 02:24:32;;;;;;;6.03;4.60;;;;;;;;;;5061967;28;20197;-70
2022/11/15 02:27:15;;;;;;;5.32;4.93;;;;;;;;;;5063056;28;20209;-70
2022/11/15 02:29:49;;;;;;;5.63;5.13;;;;;;;;;;5062247;28;20200;-70
2022/11/15 02:32:19;;;;;;;6.07;4.70;;;;;;;;;;5062805;28;20204;-70
2022/11/15 02:34:52;;;;;;;8.65;5.82;;;;;;;;;;5062655;28;20426;-70
2022/11/15 02:37:22;;;;;;;5.43;4.95;;;;;;;;;;5062504;28;20489;-70
2022/11/15 02:39:51;;;;;;;6.13;5.32;;;;;;;;;;5062215;28;20266;-70
2022/11/15 02:45:03;;;;;;;6.70;5.75;;;;;;;;;;5041299;28;20260;-71
2022/11/15 02:47:32;;;;;;;6.40;5.18;;;;;;;;;;5062422;28;20387;-71
2022/11/15 02:49:59;;;;;;;4.90;4.47;;;;;;;;;;5062077;28;20216;-70
2022/11/15 02:52:26;;;;;;;6.30;4.68;;;;;;;;;;5062299;28;20204;-71
2022/11/15 02:54:54;;;;;;;4.78;4.32;;;;;;;;;;5062050;28;20196;-70
2022/11/15 02:57:22;;;;;;;6.45;5.13;;;;;;;;;;5062337;28;20197;-70
2022/11/15 03:00:00;;;;;;;4.95;4.55;;;;;;;;;;5062043;28;20226;-70
2022/11/15 03:02:33;;;;;;;5.60;3.90;;;;;;;;;;5062130;28;20385;-70
2022/11/15 03:05:04;;;;;;;4.50;4.10;;;;;;;;;;5062066;28;20196;-70
2022/11/15 03:07:31;;;;;;;6.05;4.70;;;;;;;;;;5061966;28;20220;-70
2022/11/15 03:10:00;;;;;;;8.73;5.63;;;;;;;;;;5061869;28;20227;-70
2022/11/15 03:12:28;;;;;;;6.25;5.25;;;;;;;;;;5061961;28;20197;-70
2022/11/15 03:14:57;;;;;;;9.68;6.30;;;;;;;;;;5061930;28;20203;-70
2022/11/15 03:17:24;;;;;;;8.18;6.03;;;;;;;;;;5061807;28;20368;-70
2022/11/15 03:19:52;;;;;;;12.18;7.25;;;;;;;;;;5061263;28;20211;-70
2022/11/15 03:22:21;;;;;;;9.13;7.53;;;;;;;;;;5061881;28;20389;-70
2022/11/15 03:24:48;;;;;;;8.68;7.30;;;;;;;;;;5061613;28;20211;-70
2022/11/15 03:27:16;;;;;;;10.48;8.07;;;;;;;;;;5061711;28;20201;-70
2022/11/15 03:29:45;;;;;;;12.60;8.27;;;;;;;;;;5061918;28;20194;-70
2022/11/15 03:32:13;;;;;;;9.13;7.80;;;;;;;;;;5061778;28;20197;-70
2022/11/15 03:34:41;;;;;;;9.63;8.00;;;;;;;;;;5064480;28;20196;-70
2022/11/15 03:37:09;;;;;;;9.95;7.43;;;;;;;;;;5068407;28;20201;-70
2022/11/15 03:39:36;;;;;;;8.52;7.63;;;;;;;;;;5068222;28;20227;-70
2022/11/15 03:42:09;;;;;;;9.63;8.63;;;;;;;;;;5068091;28;20193;-70
2022/11/15 03:44:37;;;;;;;11.35;7.38;;;;;;;;;;5068117;28;20223;-70
2022/11/15 03:47:05;;;;;;;11.23;8.73;;;;;;;;;;5068132;28;20220;-70
2022/11/15 03:49:33;;;;;;;13.05;8.50;;;;;;;;;;5068020;28;20197;-70
2022/11/15 03:52:00;;;;;;;12.55;9.13;;;;;;;;;;5068165;28;20472;-70
2022/11/15 03:54:26;;;;;;;13.95;9.50;;;;;;;;;;5068343;28;20201;-70
2022/11/15 03:56:54;;;;;;;13.82;8.40;;;;;;;;;;5067976;28;20224;-70
2022/11/15 03:59:20;;;;;;;13.68;9.43;;;;;;;;;;5068213;28;20370;-71
2022/11/15 04:01:46;;;;;;;11.15;8.43;;;;;;;;;;5068031;28;20193;-70
2022/11/15 04:04:12;;;;;;;12.32;8.07;;;;;;;;;;5067878;28;20201;-70
2022/11/15 04:06:39;;;;;;;10.75;7.72;;;;;;;;;;5068156;28;20602;-70
2022/11/15 04:09:05;;;;;;;8.80;7.32;;;;;;;;;;5067841;28;20626;-70
2022/11/15 04:11:31;;;;;;;9.45;7.60;;;;;;;;;;5067851;28;20216;-70
2022/11/15 04:13:59;;;;;;;12.52;7.72;;;;;;;;;;5067800;28;20204;-70
2022/11/15 04:16:25;;;;;;;8.15;7.30;;;;;;;;;;5068153;28;20488;-70
2022/11/15 04:24:15;;;;;;;7.70;6.97;;;;;;;;;;5067699;28;20216;-70
2022/11/15 04:26:42;;;;;;;7.20;6.53;;;;;;;;;;5068112;28;20411;-70
2022/11/15 04:31:53;;;;;;;10.50;7.15;;;;;;;;;;5067648;28;20477;-70
2022/11/15 04:34:19;;;;;;;7.32;6.63;;;;;;;;;;5067873;28;20220;-71
2022/11/15 04:39:30;;;;;;;9.98;6.85;;;;;;;;;;5067600;28;20197;-70
2022/11/15 04:41:56;;;;;;;7.70;6.28;;;;;;;;;;5067705;28;20201;-70
2022/11/15 04:44:24;;;;;;;6.70;6.18;;;;;;;;;;5067788;28;20219;-71
2022/11/15 04:46:50;;;;;;;7.05;6.35;;;;;;;;;;5064607;28;20211;-71
2022/11/15 04:49:16;;;;;;;8.98;5.97;;;;;;;;;;5064238;28;20201;-71
2022/11/15 04:51:42;;;;;;;6.95;5.95;;;;;;;;;;5064364;28;20228;-70
2022/11/15 04:54:09;;;;;;;5.80;5.30;;;;;;;;;;5064465;28;20411;-70
2022/11/15 04:56:35;;;;;;;7.13;5.68;;;;;;;;;;5064334;28;20204;-70
2022/11/15 04:59:01;;;;;;;6.78;5.25;;;;;;;;;;5064340;28;20400;-70
2022/11/15 05:01:29;;;;;;;5.60;5.10;;;;;;;;;;5064349;28;20206;-70
2022/11/15 05:06:39;;;;;;;10.80;4.90;;;;;;;;;;5064278;28;20207;-70
2022/11/15 05:09:05;;;;;;;5.60;5.07;;;;;;;;;;5063978;28;20197;-70
2022/11/15 05:11:32;;;;;;;8.38;5.70;;;;;;;;;;5063879;28;20216;-70
2022/11/15 05:13:58;;;;;;;7.18;5.22;;;;;;;;;;5064156;28;20205;-70
2022/11/15 05:16:24;;;;;;;6.07;5.28;;;;;;;;;;5064011;28;20197;-70
2022/11/15 05:18:52;;;;;;;7.80;6.10;;;;;;;;;;5063788;28;20526;-70
2022/11/15 05:21:19;;;;;;;12.35;6.97;;;;;;;;;;5063987;28;20201;-71
2022/11/15 05:23:45;;;;;;;8.55;7.22;;;;;;;;;;5063920;28;20197;-70
2022/11/15 05:26:11;;;;;;;8.70;7.30;;;;;;;;;;5064016;28;20497;-70
2022/11/15 05:28:38;;;;;;;8.82;7.78;;;;;;;;;;5063516;28;20468;-70
2022/11/15 05:31:05;;;;;;;13.63;9.98;;;;;;;;;;5063514;28;20650;-70
2022/11/15 05:33:31;;;;;;;19.77;12.70;;;;;;;;;;5063934;28;20203;-70
2022/11/15 05:36:02;;;;;;;25.05;18.20;;;;;;;;;;5063875;28;20203;-70
2022/11/15 05:38:28;;;;;;;14.43;11.18;;;;;;;;;;5063435;28;20204;-70
2022/11/15 05:40:55;;;;;;;11.68;8.02;;;;;;;;;;5063545;28;20194;-70
2022/11/15 05:43:21;;;;;;;12.93;8.38;;;;;;;;;;5063519;28;20205;-70
2022/11/15 05:45:48;;;;;;;7.95;7.18;;;;;;;;;;5063432;28;20197;-70
2022/11/15 05:48:14;;;;;;;11.63;7.80;;;;;;;;;;5063358;28;20524;-70
2022/11/15 05:50:43;;;;;;;10.02;7.40;;;;;;;;;;5063376;28;20217;-70
2022/11/15 05:53:10;;;;;;;9.50;7.75;;;;;;;;;;5063357;28;20197;-70
2022/11/15 05:55:38;;;;;;;7.97;7.18;;;;;;;;;;5063229;28;20235;-70
2022/11/15 05:58:04;;;;;;;10.98;7.97;;;;;;;;;;5062709;28;20200;-70
2022/11/15 06:00:30;;;;;;;9.52;7.85;;;;;;;;;;5063391;28;20373;-70
2022/11/15 06:02:57;;;;;;;8.25;7.28;;;;;;;;;;5063009;28;20197;-70
2022/11/15 06:05:23;;;;;;;10.38;7.97;;;;;;;;;;5063140;28;20419;-70
2022/11/15 06:07:49;;;;;;;12.70;8.88;;;;;;;;;;5062725;28;20201;-70
2022/11/15 06:10:17;;;;;;;10.98;7.97;;;;;;;;;;5062956;28;20395;-71
2022/11/15 06:12:43;;;;;;;13.73;8.38;;;;;;;;;;5062743;28;20254;-71
2022/11/15 06:15:10;;;;;;;13.35;8.63;;;;;;;;;;5063071;28;20204;-71
2022/11/15 06:17:36;;;;;;;12.82;8.18;;;;;;;;;;5062551;28;20197;-71
2022/11/15 06:20:03;;;;;;;12.00;8.25;;;;;;;;;;5062699;28;20396;-71
2022/11/15 06:22:29;;;;;;;10.27;7.80;;;;;;;;;;5062809;28;20228;-71
2022/11/15 06:24:55;;;;;;;10.07;8.27;;;;;;;;;;5062674;28;20217;-71
2022/11/15 06:27:23;;;;;;;8.82;7.30;;;;;;;;;;5062365;28;20465;-71
2022/11/15 06:29:49;;;;;;;12.52;8.60;;;;;;;;;;5062644;28;20505;-71
2022/11/15 06:32:16;;;;;;;12.35;8.38;;;;;;;;;;5062597;28;20216;-71
2022/11/15 06:34:42;;;;;;;11.60;7.47;;;;;;;;;;5062535;28;20197;-71
2022/11/15 06:37:08;;;;;;;8.93;7.63;;;;;;;;;;5062400;28;20205;-71
2022/11/15 06:39:34;;;;;;;11.73;8.25;;;;;;;;;;5062141;28;20197;-71
2022/11/15 06:42:01;;;;;;;10.20;8.10;;;;;;;;;;5062232;28;20441;-71
2022/11/15 06:44:28;;;;;;;12.48;8.75;;;;;;;;;;5062601;28;20201;-72
2022/11/15 06:46:54;;;;;;;9.48;7.50;;;;;;;;;;5062358;28;20197;-72
2022/11/15 06:49:21;;;;;;;8.60;7.60;;;;;;;;;;5062015;28;20203;-72
2022/11/15 06:51:47;;;;;;;9.52;7.57;;;;;;;;;;5062244;28;20216;-73
2022/11/15 06:54:13;;;;;;;11.27;8.23;;;;;;;;;;5062195;28;20207;-72
2022/11/15 06:56:40;;;;;;;10.95;7.72;;;;;;;;;;5062313;28;20197;-72
2022/11/15 06:59:06;;;;;;;8.93;7.93;;;;;;;;;;5061915;28;20207;-72
2022/11/15 07:01:33;;;;;;;10.73;8.10;;;;;;;;;;5061980;28;20212;-72
2022/11/15 07:04:00;;;;;;;13.90;9.60;;;;;;;;;;5062113;28;20201;-72
2022/11/15 07:06:26;;;;;;;13.52;9.20;;;;;;;;;;5061989;28;20201;-72
2022/11/15 07:08:52;;;;;;;11.93;8.88;;;;;;;;;;5061552;28;20197;-72
2022/11/15 07:11:19;;;;;;;16.30;10.00;;;;;;;;;;5061809;28;20224;-72
2022/11/15 07:13:45;;;;;;;19.13;11.65;;;;;;;;;;5061947;28;20204;-72
2022/11/15 07:16:11;;;;;;;16.58;11.07;;;;;;;;;;5061836;28;20203;-72
2022/11/15 07:18:39;;;;;;;15.48;11.25;;;;;;;;;;5061647;28;20508;-72
2022/11/15 07:21:06;;;;;;;14.27;10.70;;;;;;;;;;5061502;28;20200;-72
2022/11/15 07:23:32;;;;;;;15.15;9.60;;;;;;;;;;5061509;28;20204;-72
2022/11/15 07:25:59;;;;;;;15.95;9.20;;;;;;;;;;5061721;28;20512;-65
2022/11/15 07:28:25;;;;;;;12.32;9.02;;;;;;;;;;5055923;28;20239;-64
2022/11/15 07:30:51;;;;;;;11.38;8.68;;;;;;;;;;5055422;28;20223;-63
2022/11/15 07:33:18;;;;;;;13.63;8.80;;;;;;;;;;5047443;28;20524;-64
2022/11/15 07:35:48;;;;;;;12.40;8.60;;;;;;;;;;5052157;28;20209;-64
2022/11/15 07:38:15;;;;;;;14.02;8.27;;;;;;;;;;5051728;28;20217;-65
2022/11/15 07:40:41;;;;;;;11.32;8.40;;;;;;;;;;5038653;28;20205;-65
2022/11/15 07:43:09;;;;;;;8.75;7.80;;;;;;;;;;5055322;28;20212;-65
2022/11/15 07:45:40;;;;;;;10.75;7.22;;;;;;;;;;5045087;28;20209;-65
2022/11/15 07:48:07;;;;;;;10.18;7.82;;;;;;;;;;5052674;28;20216;-65
2022/11/15 07:50:33;;;;;;;13.68;7.90;;;;;;;;;;5039065;28;20221;-65
2022/11/15 07:53:00;;;;;;;11.00;8.77;;;;;;;;;;5036539;28;20563;-65
2022/11/15 07:55:28;;;;;;;16.08;9.32;;;;;;;;;;5036462;28;20206;-65
2022/11/15 07:57:54;;;;;;;14.63;8.23;;;;;;;;;;5035829;28;20209;-65
2022/11/15 08:00:20;;;;;;;12.35;7.75;;;;;;;;;;5052638;28;20563;-65
2022/11/15 08:02:47;;;;;;;14.23;8.07;;;;;;;;;;5056096;28;20209;-65
2022/11/15 08:05:13;;;;;;;18.17;8.40;;;;;;;;;;5055531;28;20527;-65
2022/11/15 08:07:40;;;;;;;15.13;8.10;;;;;;;;;;5055734;28;20213;-62
2022/11/15 08:10:08;;;;;;;13.93;7.65;;;;;;;;;;5055273;28;20237;-63
2022/11/15 08:12:35;;;;;;;13.10;8.10;;;;;;;;;;5055380;28;20270;-64
2022/11/15 08:15:01;;;;;;;10.77;8.00;;;;;;;;;;5054978;28;20208;-64
2022/11/15 08:17:31;;;;;;;10.27;7.25;;;;;;;;;;5055577;28;20215;-64
2022/11/15 08:19:58;;;;;;;8.75;7.22;;;;;;;;;;5054848;28;20217;-61
2022/11/15 08:22:24;;;;;;;10.80;7.32;;;;;;;;;;5058404;28;20212;-62
2022/11/15 08:24:50;;;;;;;9.68;7.35;;;;;;;;;;5060668;28;20548;-62
2022/11/15 08:27:18;;;;;;;13.30;7.45;;;;;;;;;;5053369;28;20216;-62
2022/11/15 08:29:45;;;;;;;9.68;7.10;;;;;;;;;;5043236;28;20217;-62
2022/11/15 08:32:11;;;;;;;13.18;7.47;;;;;;;;;;5042328;28;20225;-61
2022/11/15 08:34:38;;;;;;;10.15;6.90;;;;;;;;;;5037304;28;20213;-61
2022/11/15 08:37:04;;;;;;;9.68;6.75;;;;;;;;;;5050658;28;20221;-61
2022/11/15 08:39:31;;;;;;;9.13;7.50;;;;;;;;;;5049567;28;20221;-61
2022/11/15 08:41:57;;;;;;;8.35;7.00;;;;;;;;;;5044501;28;20217;-61
2022/11/15 08:44:24;;;;;;;9.65;7.15;;;;;;;;;;5039259;28;20217;-60
2022/11/15 08:46:51;;;;;;;11.07;7.32;;;;;;;;;;5057703;28;20279;-60
2022/11/15 08:49:17;;;;;;;10.45;7.80;;;;;;;;;;5053787;28;20217;-61
2022/11/15 08:51:43;;;;;;;12.50;7.75;;;;;;;;;;5037629;28;20224;-61
2022/11/15 08:54:09;;;;;;;10.65;7.13;;;;;;;;;;5038851;28;20449;-61
2022/11/15 08:56:36;;;;;;;10.63;7.90;;;;;;;;;;5038860;28;20222;-61
2022/11/15 08:59:02;;;;;;;14.57;8.63;;;;;;;;;;5036447;28;20220;-63
2022/11/15 09:01:30;;;;;;;23.75;15.68;;;;;;;;;;5036978;28;20222;-63
2022/11/15 09:03:56;;;;;;;11.35;8.20;;;;;;;;;;5037434;28;20216;-63
2022/11/15 09:06:22;;;;;;;12.93;7.90;;;;;;;;;;5037803;28;20334;-63
2022/11/15 09:08:49;;;;;;;11.85;8.10;;;;;;;;;;5036903;28;20259;-63
2022/11/15 09:11:16;;;;;;;9.50;7.28;;;;;;;;;;5037699;28;20252;-63
2022/11/15 09:13:42;;;;;;;10.07;7.45;;;;;;;;;;5046067;28;20270;-63
2022/11/15 09:16:08;;;;;;;11.85;6.78;;;;;;;;;;5056670;28;20205;-61
2022/11/15 09:18:36;;;;;;;16.40;7.22;;;;;;;;;;5057554;28;20683;-61
2022/11/15 09:21:03;;;;;;;14.88;6.65;;;;;;;;;;5057990;28;20515;-61
2022/11/15 09:23:30;;;;;;;10.88;7.20;;;;;;;;;;5057753;28;20225;-61
2022/11/15 09:25:59;;;;;;;13.43;7.47;;;;;;;;;;5057744;28;20216;-63
2022/11/15 09:28:25;;;;;;;9.40;6.75;;;;;;;;;;5055940;28;20236;-61
2022/11/15 09:30:52;;;;;;;10.55;7.40;;;;;;;;;;5056631;28;20220;-61
2022/11/15 09:33:18;;;;;;;13.35;7.30;;;;;;;;;;5056597;28;20236;-63
2022/11/15 09:35:45;;;;;;;10.02;7.00;;;;;;;;;;5057119;28;20216;-62
2022/11/15 09:38:12;;;;;;;8.60;7.30;;;;;;;;;;5046869;28;20575;-62
2022/11/15 09:40:38;;;;;;;12.80;7.32;;;;;;;;;;5056925;28;20489;-62
2022/11/15 09:43:24;;;;;;;14.13;8.00;;;;;;;;;;5056304;28;20209;-62
2022/11/15 09:45:56;;;;;;;11.82;7.80;;;;;;;;;;5055793;28;20219;-62
2022/11/15 09:48:32;;;;;;;10.18;8.30;;;;;;;;;;5039310;28;20273;-61
2022/11/15 09:51:00;;;;;;;11.52;7.88;;;;;;;;;;5035850;28;20205;-61
2022/11/15 09:53:27;;;;;;;15.68;8.13;;;;;;;;;;5036840;28;20621;-61
2022/11/15 09:56:00;;;;;;;9.88;8.13;;;;;;;;;;5036278;28;20214;-61
2022/11/15 09:58:29;;;;;;;12.13;8.23;;;;;;;;;;5035624;28;20431;-62
2022/11/15 10:00:56;;;;;;;14.43;9.27;;;;;;;;;;5036462;28;20389;-62
2022/11/15 10:03:25;;;;;;;10.88;8.57;;;;;;;;;;5045137;28;20215;-60
2022/11/15 10:05:54;;;;;;;12.18;7.82;;;;;;;;;;5053767;28;20213;-61
2022/11/15 10:08:26;;;;;;;11.77;8.40;;;;;;;;;;5036229;28;20221;-61
2022/11/15 10:10:55;;;;;;;13.25;8.18;;;;;;;;;;5035911;28;20220;-61
2022/11/15 10:13:23;;;;;;;12.38;7.75;;;;;;;;;;5036354;28;20494;-61
2022/11/15 10:15:51;;;;;;;12.15;8.07;;;;;;;;;;5035980;28;20413;-62
2022/11/15 10:18:18;;;;;;;13.05;7.82;;;;;;;;;;5036128;28;20271;-62
2022/11/15 10:20:49;;;;;;;10.73;6.72;;;;;;;;;;5055491;28;20217;-62
2022/11/15 10:23:16;;;;;;;12.60;7.97;;;;;;;;;;5054718;28;20420;-61
2022/11/15 10:25:44;;;;;;;12.00;7.50;;;;;;;;;;5055758;28;20217;-61
2022/11/15 10:28:13;;;;;;;9.45;7.45;;;;;;;;;;5054627;28;20247;-61
2022/11/15 10:30:41;;;;;;;11.20;8.02;;;;;;;;;;5054246;28;20209;-61
2022/11/15 10:33:13;;;;;;;15.23;8.13;;;;;;;;;;5055267;28;20414;-61
2022/11/15 10:35:39;;;;;;;11.40;8.10;;;;;;;;;;5055240;28;20220;-61
2022/11/15 10:38:07;;;;;;;9.90;8.00;;;;;;;;;;5041504;28;20214;-62
2022/11/15 10:40:33;;;;;;;12.48;8.18;;;;;;;;;;5039925;28;20236;-62
2022/11/15 10:43:07;;;;;;;15.13;8.40;;;;;;;;;;5049470;28;20220;-61
2022/11/15 10:45:34;;;;;;;11.07;7.80;;;;;;;;;;5039726;28;20217;-63
2022/11/15 10:48:15;;;;;;;17.27;8.52;;;;;;;;;;5056860;28;20220;-63
2022/11/15 10:50:42;;;;;;;10.80;7.90;;;;;;;;;;5048662;28;20206;-63
2022/11/15 10:53:13;;;;;;;16.02;7.70;;;;;;;;;;5035752;28;20229;-61
2022/11/15 10:55:41;;;;;;;15.75;8.35;;;;;;;;;;5035302;28;20224;-61
2022/11/15 10:58:25;;;;;;;9.77;8.02;;;;;;;;;;5034703;28;20217;-62
2022/11/15 11:00:54;;;;;;;15.25;8.23;;;;;;;;;;5040051;28;20409;-62
2022/11/15 11:03:30;;;;;;;15.23;8.75;;;;;;;;;;5035325;28;20620;-62
2022/11/15 11:06:07;;;;;;;16.70;7.90;;;;;;;;;;5051635;28;20433;-61
2022/11/15 11:08:33;;;;;;;12.23;8.30;;;;;;;;;;5054743;28;20212;-61
2022/11/15 11:11:00;;;;;;;8.30;7.50;;;;;;;;;;5054175;28;20213;-61
2022/11/15 11:13:28;;;;;;;10.07;7.65;;;;;;;;;;5037243;28;20241;-62
2022/11/15 11:15:57;;;;;;;12.05;7.53;;;;;;;;;;5034774;28;20213;-61
2022/11/15 11:18:27;;;;;;;11.45;7.80;;;;;;;;;;5040815;28;20230;-61
2022/11/15 11:20:59;;;;;;;12.35;7.75;;;;;;;;;;5054866;28;20220;-61
2022/11/15 11:23:34;;;;;;;8.32;7.10;;;;;;;;;;5054236;28;20213;-62
2022/11/15 11:26:08;;;;;;;7.72;6.93;;;;;;;;;;5055307;28;20397;-63
2022/11/15 11:28:38;;;;;;;11.98;7.97;;;;;;;;;;5054171;28;20236;-63
2022/11/15 11:31:13;;;;;;;10.52;8.30;;;;;;;;;;5053223;28;20246;-63
2022/11/15 11:33:43;;;;;;;11.18;7.40;;;;;;;;;;5035757;28;20631;-62
2022/11/15 11:36:16;;;;;;;12.70;7.93;;;;;;;;;;5047518;28;20663;-62
2022/11/15 11:38:51;;;;;;;13.32;7.57;;;;;;;;;;5050151;28;20209;-62
2022/11/15 11:41:24;;;;;;;8.63;6.25;;;;;;;;;;5037738;28;20231;-62
2022/11/15 11:43:54;;;;;;;10.05;7.53;;;;;;;;;;5054636;28;20215;-62
2022/11/15 11:46:37;;;;;;;9.15;6.60;;;;;;;;;;5054379;28;20558;-62
2022/11/15 11:49:05;;;;;;;7.65;6.43;;;;;;;;;;5053756;28;20235;-62
2022/11/15 11:51:35;;;;;;;8.18;6.55;;;;;;;;;;5055714;28;20209;-62
2022/11/15 11:54:04;;;;;;;9.57;6.75;;;;;;;;;;5054627;28;20233;-62
2022/11/15 11:56:32;;;;;;;9.73;6.72;;;;;;;;;;5056982;28;20212;-62
2022/11/15 11:59:02;;;;;;;25.27;15.45;;;;;;;;;;5057670;28;20236;-62
2022/11/15 12:01:30;;;;;;;12.63;7.35;;;;;;;;;;5058071;28;20544;-61
2022/11/15 12:04:01;;;;;;;22.92;10.55;;;;;;;;;;5058090;28;20547;-62
2022/11/15 12:06:36;;;;;;;33.45;15.15;;;;;;;;;;5057019;28;20227;-61
2022/11/15 12:09:05;;;;;;;11.63;7.78;;;;;;;;;;5057083;28;20201;-61
2022/11/15 12:11:36;;;;;;;38.17;18.75;;;;;;;;;;5061900;28;20209;-62
2022/11/15 12:14:04;;;;;;;19.25;10.07;;;;;;;;;;5062555;28;20559;-62
2022/11/15 12:16:31;;;;;;;9.93;7.03;;;;;;;;;;5047766;28;20220;-62
2022/11/15 12:19:01;;;;;;;19.17;11.52;;;;;;;;;;5047480;28;20213;-62
2022/11/15 12:21:33;;;;;;;13.95;9.95;;;;;;;;;;5044072;28;20523;-63
2022/11/15 12:24:00;;;;;;;8.55;7.00;;;;;;;;;;5049311;28;20430;-63
2022/11/15 12:26:27;;;;;;;15.73;8.32;;;;;;;;;;5064068;28;20209;-63
2022/11/15 12:28:57;;;;;;;10.40;7.30;;;;;;;;;;5062474;28;20229;-63
2022/11/15 12:31:25;;;;;;;11.77;7.47;;;;;;;;;;5047915;28;20231;-63
2022/11/15 12:33:55;;;;;;;16.17;7.72;;;;;;;;;;5047571;28;20236;-63
2022/11/15 12:36:34;;;;;;;15.95;8.38;;;;;;;;;;5049087;28;20209;-63
2022/11/15 12:39:02;;;;;;;10.25;7.45;;;;;;;;;;5052859;28;20210;-63
2022/11/15 12:41:29;;;;;;;11.43;7.97;;;;;;;;;;5052381;28;20231;-62
2022/11/15 12:43:55;;;;;;;11.07;7.90;;;;;;;;;;5054357;28;20201;-61
2022/11/15 12:46:40;;;;;;;13.55;7.50;;;;;;;;;;5041647;28;20217;-61
2022/11/15 12:49:10;;;;;;;16.75;7.85;;;;;;;;;;5052057;28;20208;-61
2022/11/15 12:52:04;;;;;;;8.77;7.72;;;;;;;;;;5062241;28;20208;-61
2022/11/15 12:54:49;;;;;;;8.90;7.40;;;;;;;;;;5062045;28;20566;-61
2022/11/15 12:57:31;;;;;;;10.88;7.75;;;;;;;;;;5061684;28;20391;-61
2022/11/15 13:00:03;;;;;;;11.50;8.10;;;;;;;;;;5050078;28;20505;-61
2022/11/15 13:02:30;;;;;;;16.85;9.55;;;;;;;;;;5042246;28;20216;-61
2022/11/15 13:05:18;;;;;;;11.43;7.97;;;;;;;;;;5056572;28;20212;-61
2022/11/15 13:07:57;;;;;;;10.48;7.30;;;;;;;;;;5057921;28;20236;-61
2022/11/15 13:10:31;;;;;;;13.32;6.78;;;;;;;;;;5052383;28;20558;-61
2022/11/15 13:12:59;;;;;;;10.57;6.82;;;;;;;;;;5062296;28;20229;-61
2022/11/15 13:15:34;;;;;;;8.48;6.55;;;;;;;;;;5053293;28;20209;-61
2022/11/15 13:18:20;;;;;;;10.13;6.35;;;;;;;;;;5045930;28;20201;-61
2022/11/15 13:20:46;;;;;;;9.57;5.75;;;;;;;;;;5041227;28;20212;-61
2022/11/15 13:23:15;;;;;;;6.97;5.35;;;;;;;;;;5049851;28;20211;-61
2022/11/15 13:25:59;;;;;;;12.85;7.15;;;;;;;;;;5061017;28;20204;-60
2022/11/15 13:28:32;;;;;;;12.80;7.10;;;;;;;;;;5058476;28;20233;-61
2022/11/15 13:30:59;;;;;;;9.30;6.72;;;;;;;;;;5048544;28;20220;-61
2022/11/15 13:33:28;;;;;;;9.20;7.10;;;;;;;;;;5041032;28;20225;-61
2022/11/15 13:35:56;;;;;;;11.23;6.60;;;;;;;;;;5053074;28;20211;-61
2022/11/15 13:38:26;;;;;;;15.57;7.55;;;;;;;;;;5048131;28;20392;-61
2022/11/15 13:40:53;;;;;;;11.02;7.07;;;;;;;;;;5043842;28;20204;-61
2022/11/15 13:43:28;;;;;;;14.18;8.38;;;;;;;;;;5053241;28;20224;-61
2022/11/15 13:46:05;;;;;;;12.45;8.00;;;;;;;;;;5060818;28;20531;-62
2022/11/15 13:48:33;;;;;;;8.93;7.18;;;;;;;;;;5057103;28;20588;-61
2022/11/15 13:51:00;;;;;;;13.95;6.88;;;;;;;;;;5041724;28;20237;-61
2022/11/15 13:53:26;;;;;;;8.27;6.88;;;;;;;;;;5051518;28;20568;-61
2022/11/15 13:55:54;;;;;;;13.38;6.18;;;;;;;;;;5041484;28;20205;-60
2022/11/15 13:58:20;;;;;;;12.88;6.15;;;;;;;;;;5049310;28;20232;-61
2022/11/15 14:00:47;;;;;;;6.68;5.55;;;;;;;;;;5060469;28;20211;-61
2022/11/15 14:03:19;;;;;;;9.32;5.47;;;;;;;;;;5060050;28;20424;-62
2022/11/15 14:05:47;;;;;;;6.28;4.82;;;;;;;;;;5061087;28;20209;-62
2022/11/15 14:08:22;;;;;;;9.52;5.38;;;;;;;;;;5058776;28;20258;-62
2022/11/15 14:10:48;;;;;;;7.53;4.88;;;;;;;;;;5060244;28;20512;-62
2022/11/15 14:13:27;;;;;;;9.35;4.82;;;;;;;;;;5054516;28;20216;-62
2022/11/15 14:15:54;;;;;;;6.43;4.88;;;;;;;;;;5052530;28;20409;-62
2022/11/15 14:18:35;;;;;;;9.43;4.82;;;;;;;;;;5043206;28;20205;-62
2022/11/15 14:21:07;;;;;;;12.55;4.93;;;;;;;;;;5046840;28;20493;-61
2022/11/15 14:23:34;;;;;;;5.72;5.07;;;;;;;;;;5060374;28;20218;-61
2022/11/15 14:26:00;;;;;;;6.60;4.88;;;;;;;;;;5042379;28;20470;-62
2022/11/15 14:28:30;;;;;;;5.93;4.88;;;;;;;;;;5039373;28;20558;-61
2022/11/15 14:30:57;;;;;;;10.40;5.35;;;;;;;;;;5050034;28;20276;-61
2022/11/15 14:33:25;;;;;;;9.50;5.65;;;;;;;;;;5038890;28;20544;-61
2022/11/15 14:35:52;;;;;;;9.43;5.78;;;;;;;;;;5048793;28;20233;-62
2022/11/15 14:38:20;;;;;;;6.72;5.20;;;;;;;;;;5038914;28;20206;-61
2022/11/15 14:40:46;;;;;;;8.32;5.43;;;;;;;;;;5040356;28;20216;-61
2022/11/15 14:43:13;;;;;;;10.85;6.53;;;;;;;;;;5044637;28;20208;-61
2022/11/15 14:45:39;;;;;;;13.88;7.78;;;;;;;;;;5059190;28;20412;-62
2022/11/15 14:48:06;;;;;;;15.05;7.97;;;;;;;;;;5059402;28;20216;-61
2022/11/15 14:50:33;;;;;;;16.35;7.20;;;;;;;;;;5055283;28;20505;-62
2022/11/15 14:52:59;;;;;;;14.65;8.07;;;;;;;;;;5053088;28;20212;-62
2022/11/15 14:55:28;;;;;;;14.00;6.43;;;;;;;;;;5046559;28;20222;-61
2022/11/15 14:57:54;;;;;;;14.13;7.90;;;;;;;;;;5049905;28;20209;-62